Time;durP1;ratioP1;P1;durP2;ratioP2;P2;SDS_P1;SDS_P2;PMS_P1;PMS_P2;Temp;Humidity;BMP_temperature;BMP_pressure;BME280_temperature;BME280_humidity;BME280_pressure;Samples;Min_cycle;Max_cycle;Signal;HPM_P1;HPM_P2
2021/12/09 00:02:14;;;;;;;0.20;0.20;;;;;;;19.30;41.21;99846.19;5134855;27;20175;-33
2021/12/09 00:04:41;;;;;;;0.20;0.20;;;;;;;19.29;41.59;99850.88;5149998;27;20392;-33
2021/12/09 00:07:07;;;;;;;0.20;0.20;;;;;;;19.31;41.31;99847.81;5152919;27;20046;-33
2021/12/09 00:09:33;;;;;;;0.20;0.20;;;;;;;19.30;41.25;99847.00;5154435;27;20043;-33
2021/12/09 00:11:59;;;;;;;0.20;0.20;;;;;;;19.29;41.21;99842.59;5153927;27;20074;-33
2021/12/09 00:14:27;;;;;;;0.20;0.20;;;;;;;19.29;41.32;99841.78;5138552;27;20116;-33
2021/12/09 00:16:55;;;;;;;0.20;0.20;;;;;;;19.28;41.34;99853.94;5140695;27;20118;-34
2021/12/09 00:19:20;;;;;;;0.15;0.15;;;;;;;19.29;41.24;99844.53;5128380;28;20405;-33
2021/12/09 00:21:46;;;;;;;0.20;0.20;;;;;;;19.28;41.40;99843.72;5125738;28;20594;-34
2021/12/09 00:24:12;;;;;;;0.20;0.20;;;;;;;19.29;41.43;99844.53;5123217;28;20437;-34
2021/12/09 00:26:39;;;;;;;0.20;0.20;;;;;;;19.29;41.37;99841.78;5120453;28;20432;-34
2021/12/09 00:29:06;;;;;;;0.20;0.20;;;;;;;19.29;41.39;99852.81;5124588;28;20039;-35
2021/12/09 00:31:32;;;;;;;0.20;0.20;;;;;;;19.29;41.53;99845.34;5108719;28;20182;-34
2021/12/09 00:33:59;;;;;;;0.20;0.20;;;;;;;19.28;41.43;99852.00;5125160;28;20473;-34
2021/12/09 00:36:27;;;;;;;0.20;0.20;;;;;;;19.29;41.37;99844.53;5125690;28;20039;-34
2021/12/09 00:38:54;;;;;;;0.20;0.20;;;;;;;19.28;41.49;99842.91;5125047;28;20052;-34
2021/12/09 00:41:20;;;;;;;0.20;0.20;;;;;;;19.27;41.39;99853.13;5104036;28;20441;-34
2021/12/09 00:43:46;;;;;;;0.20;0.20;;;;;;;19.27;41.34;99847.63;5118615;28;20045;-35
2021/12/09 00:46:12;;;;;;;0.20;0.20;;;;;;;19.27;41.34;99842.09;5126464;28;20045;-35
2021/12/09 00:48:38;;;;;;;0.20;0.20;;;;;;;19.29;41.59;99845.34;5125487;28;20058;-34
2021/12/09 00:51:05;;;;;;;0.20;0.20;;;;;;;19.28;41.39;99848.44;5126698;28;20050;-34
2021/12/09 00:53:31;;;;;;;0.20;0.20;;;;;;;19.28;41.48;99848.44;5123804;28;20498;-34
2021/12/09 00:55:57;;;;;;;0.20;0.20;;;;;;;19.28;41.35;99851.19;5124738;28;20054;-33
2021/12/09 00:58:23;;;;;;;0.20;0.20;;;;;;;19.28;41.48;99857.53;5123806;28;20055;-34
2021/12/09 01:00:49;;;;;;;0.20;0.20;;;;;;;19.28;41.61;99859.47;5124467;28;20577;-34
2021/12/09 01:03:16;;;;;;;0.20;0.20;;;;;;;19.27;41.52;99858.66;5122420;28;20064;-33
2021/12/09 01:05:44;;;;;;;0.20;0.20;;;;;;;19.27;41.37;99858.66;5124479;28;20049;-34
2021/12/09 01:08:29;;;;;;;0.20;0.20;;;;;;;19.27;41.35;99855.09;5098707;28;20055;-33
2021/12/09 01:10:55;;;;;;;0.20;0.20;;;;;;;19.27;41.38;99850.38;5126464;28;20137;-34
2021/12/09 01:13:21;;;;;;;0.20;0.20;;;;;;;19.27;41.31;99847.63;5124099;28;20506;-34
2021/12/09 01:15:47;;;;;;;0.20;0.20;;;;;;;19.26;41.58;99845.97;5126029;28;20048;-34
2021/12/09 01:18:13;;;;;;;0.20;0.20;;;;;;;19.27;41.58;99853.13;5125406;28;20397;-33
2021/12/09 01:20:39;;;;;;;0.20;0.20;;;;;;;19.26;41.45;99857.03;5106719;28;20046;-35
2021/12/09 01:23:04;;;;;;;0.20;0.20;;;;;;;19.26;41.53;99854.25;5124304;27;20062;-34
2021/12/09 01:25:36;;;;;;;0.20;0.20;;;;;;;19.26;41.46;99865.31;5118239;28;20039;-34
2021/12/09 01:28:03;;;;;;;0.20;0.20;;;;;;;19.27;41.44;99866.94;5125868;28;20039;-34
2021/12/09 01:30:29;;;;;;;0.20;0.20;;;;;;;19.25;41.37;99871.94;5122159;28;20381;-34
2021/12/09 01:32:55;;;;;;;0.20;0.20;;;;;;;19.26;41.45;99881.06;5123765;28;20461;-34
2021/12/09 01:35:24;;;;;;;0.20;0.20;;;;;;;19.26;41.63;99887.38;5120865;28;20039;-34
2021/12/09 01:37:54;;;;;;;0.20;0.20;;;;;;;19.27;41.34;99877.97;5123270;28;20039;-34
2021/12/09 01:40:21;;;;;;;0.20;0.20;;;;;;;19.25;41.44;99877.44;5124179;28;20084;-34
2021/12/09 01:42:46;;;;;;;0.20;0.20;;;;;;;19.26;41.48;99883.81;5119401;28;20168;-34
2021/12/09 01:45:12;;;;;;;0.20;0.20;;;;;;;19.25;41.40;99880.22;5105890;28;20043;-34
2021/12/09 01:47:39;;;;;;;0.20;0.20;;;;;;;19.26;41.45;99886.56;5126372;28;20509;-34
2021/12/09 01:50:06;;;;;;;0.20;0.20;;;;;;;19.26;41.58;99883.81;5105510;28;20043;-34
2021/12/09 01:52:32;;;;;;;0.20;0.20;;;;;;;19.27;41.66;99885.44;5127046;28;20053;-35
2021/12/09 01:54:58;;;;;;;0.20;0.20;;;;;;;19.28;41.56;99889.84;5123471;28;20398;-34
2021/12/09 01:57:24;;;;;;;0.20;0.20;;;;;;;19.26;41.39;99892.91;5125072;28;20401;-34
2021/12/09 01:59:49;;;;;;;0.20;0.20;;;;;;;19.25;41.66;99888.50;5121358;28;20413;-34
2021/12/09 02:02:15;;;;;;;0.20;0.20;;;;;;;19.26;41.48;99892.91;5123181;28;20400;-34
2021/12/09 02:04:42;;;;;;;0.20;0.20;;;;;;;19.25;41.58;99888.50;5120936;28;20047;-35
2021/12/09 02:07:07;;;;;;;0.20;0.20;;;;;;;19.25;41.52;99891.25;5108616;28;20059;-34
2021/12/09 02:09:35;;;;;;;0.20;0.20;;;;;;;19.26;41.41;99892.91;5127480;28;20046;-35
2021/12/09 02:12:01;;;;;;;0.20;0.20;;;;;;;19.25;41.45;99884.91;5105304;28;20103;-34
2021/12/09 02:14:27;;;;;;;0.20;0.20;;;;;;;19.25;41.61;99884.91;5121767;28;20467;-34
2021/12/09 02:16:53;;;;;;;0.20;0.20;;;;;;;19.25;41.37;99893.19;5121792;28;20068;-34
2021/12/09 02:19:18;;;;;;;0.20;0.20;;;;;;;19.24;41.64;99886.88;5121489;28;20043;-34
2021/12/09 02:21:44;;;;;;;0.20;0.20;;;;;;;19.25;41.41;99890.44;5122865;28;20077;-35
2021/12/09 02:24:14;;;;;;;0.20;0.20;;;;;;;19.24;41.61;99889.63;5119738;28;20397;-34
2021/12/09 02:26:43;;;;;;;0.20;0.20;;;;;;;19.24;41.50;99889.63;5124655;28;20130;-34
2021/12/09 02:29:11;;;;;;;0.20;0.20;;;;;;;19.24;41.46;99884.09;5123456;28;20043;-34
2021/12/09 02:31:37;;;;;;;0.20;0.20;;;;;;;19.24;41.42;99881.34;5123317;28;20145;-36
2021/12/09 02:34:03;;;;;;;0.20;0.20;;;;;;;19.23;41.49;99889.94;5118498;28;20151;-35
2021/12/09 02:36:32;;;;;;;0.20;0.20;;;;;;;19.24;41.71;99886.88;5119396;27;20084;-34
2021/12/09 02:38:58;;;;;;;0.20;0.20;;;;;;;19.24;41.69;99886.88;5107552;28;20051;-34
2021/12/09 02:41:25;;;;;;;0.20;0.20;;;;;;;19.24;41.46;99884.09;5122128;28;20561;-35
2021/12/09 02:43:56;;;;;;;0.20;0.20;;;;;;;19.24;41.51;99889.63;5123316;28;20084;-34
2021/12/09 02:46:23;;;;;;;0.20;0.20;;;;;;;19.24;41.51;99892.38;5105709;28;20049;-34
2021/12/09 02:48:49;;;;;;;0.20;0.20;;;;;;;19.24;41.69;99886.88;5124793;28;20043;-34
2021/12/09 02:51:15;;;;;;;0.20;0.20;;;;;;;19.23;41.36;99889.94;5106487;28;20573;-34
2021/12/09 02:53:41;;;;;;;0.20;0.20;;;;;;;19.24;41.42;99889.63;5118969;28;20043;-34
2021/12/09 02:56:07;;;;;;;0.20;0.20;;;;;;;19.24;41.32;99884.09;5124079;28;20053;-34
2021/12/09 02:58:33;;;;;;;0.20;0.20;;;;;;;19.23;41.59;99878.91;5124829;28;20047;-34
2021/12/09 03:01:18;;;;;;;0.20;0.20;;;;;;;19.23;41.55;99882.47;5122812;28;20046;-34
2021/12/09 03:03:50;;;;;;;0.20;0.20;;;;;;;19.25;41.56;99888.50;5122108;28;20047;-35
2021/12/09 03:06:18;;;;;;;0.20;0.20;;;;;;;19.23;41.44;99887.19;5124943;28;20039;-35
2021/12/09 03:08:44;;;;;;;0.20;0.20;;;;;;;19.23;41.38;99885.22;5105754;28;20046;-33
2021/12/09 03:11:12;;;;;;;0.20;0.20;;;;;;;19.24;41.68;99889.63;5121944;28;20436;-34
2021/12/09 03:13:39;;;;;;;0.20;0.20;;;;;;;19.23;41.69;99884.41;5107274;28;21275;-34
2021/12/09 03:16:06;;;;;;;0.20;0.20;;;;;;;19.22;41.43;99896.59;5106658;27;20471;-34
2021/12/09 03:18:40;;;;;;;0.20;0.20;;;;;;;19.22;41.61;99885.56;5126257;28;20047;-34
2021/12/09 03:21:24;;;;;;;0.20;0.20;;;;;;;19.22;41.53;99880.03;5119425;28;20461;-34
2021/12/09 03:23:50;;;;;;;0.20;0.20;;;;;;;19.22;41.63;99878.09;5121013;28;20044;-34
2021/12/09 03:26:18;;;;;;;0.20;0.20;;;;;;;19.22;41.58;99882.78;5123724;28;20061;-34
2021/12/09 03:28:44;;;;;;;0.20;0.20;;;;;;;19.23;41.41;99873.38;5107416;28;20113;-34
2021/12/09 03:31:10;;;;;;;0.20;0.20;;;;;;;19.22;41.43;99872.56;5124835;28;20069;-36
2021/12/09 03:33:36;;;;;;;0.20;0.20;;;;;;;19.22;41.79;99874.50;5121424;28;20094;-34
2021/12/09 03:36:05;;;;;;;0.20;0.20;;;;;;;19.22;41.43;99877.28;5124529;28;20066;-34
2021/12/09 03:38:32;;;;;;;0.20;0.20;;;;;;;19.22;41.45;99869.00;5098895;28;20755;-34
2021/12/09 03:40:57;;;;;;;0.20;0.20;;;;;;;19.22;41.45;99867.03;5121873;28;20047;-34
2021/12/09 03:43:24;;;;;;;0.20;0.20;;;;;;;19.23;41.51;99873.38;5120406;28;20069;-33
2021/12/09 03:45:53;;;;;;;0.20;0.20;;;;;;;19.22;41.58;99880.84;5122427;28;20039;-34
2021/12/09 03:48:18;;;;;;;0.20;0.20;;;;;;;19.21;41.48;99884.75;5125257;27;20096;-34
2021/12/09 03:50:45;;;;;;;0.20;0.20;;;;;;;19.22;41.25;99888.31;5128183;28;20047;-34
2021/12/09 03:53:12;;;;;;;0.20;0.20;;;;;;;19.21;41.46;99893.03;5126124;28;20047;-37
2021/12/09 03:55:39;;;;;;;0.20;0.20;;;;;;;19.21;41.40;99890.25;5123768;28;20509;-34
2021/12/09 03:58:05;;;;;;;0.20;0.20;;;;;;;19.21;41.48;99886.66;5107869;28;20043;-34
2021/12/09 04:00:31;;;;;;;0.20;0.20;;;;;;;19.22;41.48;99888.31;5124063;28;20059;-34
2021/12/09 04:02:57;;;;;;;0.20;0.20;;;;;;;19.22;41.73;99883.59;5122449;28;20461;-33
2021/12/09 04:05:23;;;;;;;0.20;0.20;;;;;;;19.21;41.53;99875.59;5108352;28;20050;-34
2021/12/09 04:07:48;;;;;;;0.20;0.20;;;;;;;19.21;41.47;99884.75;5123706;28;20552;-34
2021/12/09 04:10:14;;;;;;;0.20;0.20;;;;;;;19.21;41.46;99875.59;5108878;28;20043;-34
2021/12/09 04:12:40;;;;;;;0.20;0.20;;;;;;;19.21;41.39;99881.13;5107261;28;20050;-35
2021/12/09 04:15:06;;;;;;;0.20;0.20;;;;;;;19.20;41.33;99885.03;5123165;28;20058;-33
2021/12/09 04:17:32;;;;;;;0.20;0.20;;;;;;;19.20;41.39;99885.84;5126202;27;20139;-34
2021/12/09 04:19:58;;;;;;;0.20;0.20;;;;;;;19.20;41.77;99885.84;5127033;27;20126;-35
2021/12/09 04:22:24;;;;;;;0.20;0.20;;;;;;;19.21;41.52;99884.75;5127599;28;20047;-34
2021/12/09 04:24:51;;;;;;;0.20;0.20;;;;;;;19.21;41.61;99890.25;5120018;28;20052;-34
2021/12/09 04:27:17;;;;;;;0.20;0.20;;;;;;;19.22;41.44;99893.84;5126217;28;20130;-35
2021/12/09 04:29:43;;;;;;;0.20;0.20;;;;;;;19.20;41.49;99887.78;5125656;28;20070;-34
2021/12/09 04:32:09;;;;;;;0.20;0.20;;;;;;;19.21;41.38;99893.03;5091033;28;20401;-34
2021/12/09 04:34:35;;;;;;;0.20;0.20;;;;;;;19.20;41.45;99891.34;5125975;28;20108;-35
2021/12/09 04:37:01;;;;;;;0.20;0.20;;;;;;;19.21;41.65;99903.22;5123344;28;20040;-33
2021/12/09 04:39:27;;;;;;;0.20;0.20;;;;;;;19.20;41.76;99901.59;5106704;28;20051;-34
2021/12/09 04:41:54;;;;;;;0.20;0.20;;;;;;;19.20;41.46;99902.41;5125902;28;20055;-34
2021/12/09 04:44:20;;;;;;;0.20;0.20;;;;;;;19.20;41.43;99916.19;5106935;28;20477;-34
2021/12/09 04:46:45;;;;;;;0.20;0.20;;;;;;;19.20;41.55;99918.16;5106757;28;20405;-34
2021/12/09 04:49:12;;;;;;;0.20;0.20;;;;;;;19.22;41.69;99918.66;5126007;28;20039;-35
2021/12/09 04:51:38;;;;;;;0.20;0.20;;;;;;;19.20;41.50;99930.00;5107394;28;20055;-34
2021/12/09 04:54:05;;;;;;;0.20;0.20;;;;;;;19.21;41.72;99922.53;5104331;28;20589;-34
2021/12/09 04:56:31;;;;;;;0.20;0.20;;;;;;;19.21;41.71;99928.06;5123776;28;20191;-34
2021/12/09 04:58:56;;;;;;;0.25;0.25;;;;;;;19.20;41.49;99931.94;5125662;27;20055;-34
2021/12/09 05:01:22;;;;;;;0.20;0.20;;;;;;;19.20;41.64;99937.47;5108347;28;20043;-35
2021/12/09 05:03:49;;;;;;;0.20;0.20;;;;;;;19.20;41.72;99934.69;5123700;28;20047;-34
2021/12/09 05:06:16;;;;;;;0.20;0.20;;;;;;;19.20;41.43;99938.28;5125170;28;20466;-34
2021/12/09 05:08:46;;;;;;;0.20;0.20;;;;;;;19.19;41.82;99936.66;5108478;28;20046;-36
2021/12/09 05:11:27;;;;;;;0.20;0.20;;;;;;;19.20;41.54;99937.47;5120916;28;20118;-34
2021/12/09 05:13:53;;;;;;;0.20;0.20;;;;;;;19.20;41.63;99940.22;5109133;27;20047;-35
2021/12/09 05:16:19;;;;;;;0.20;0.20;;;;;;;19.19;41.80;99944.94;5106888;28;20388;-34
2021/12/09 05:18:45;;;;;;;0.20;0.20;;;;;;;19.19;41.54;99944.13;5126925;28;20047;-34
2021/12/09 05:21:12;;;;;;;0.20;0.20;;;;;;;19.19;41.66;99950.44;5106687;28;20117;-37
2021/12/09 05:23:39;;;;;;;0.20;0.20;;;;;;;19.20;41.55;99962.31;5121826;28;20054;-34
2021/12/09 05:26:05;;;;;;;0.20;0.20;;;;;;;19.19;41.66;99953.22;5126022;28;20043;-34
2021/12/09 05:28:35;;;;;;;0.20;0.20;;;;;;;19.19;41.54;99955.97;5103247;28;20111;-35
2021/12/09 05:33:49;;;;;;;0.20;0.20;;;;;;;19.19;41.83;99960.69;5095932;28;20176;-34
2021/12/09 05:36:15;;;;;;;0.20;0.20;;;;;;;19.18;41.82;99959.84;5124610;28;20465;-35
2021/12/09 05:38:42;;;;;;;0.20;0.20;;;;;;;19.19;41.79;99967.00;5121496;28;20167;-34
2021/12/09 05:41:08;;;;;;;0.20;0.20;;;;;;;19.18;41.75;99968.13;5126322;28;20042;-34
2021/12/09 05:43:35;;;;;;;0.20;0.20;;;;;;;19.19;41.47;99978.06;5124330;28;20048;-35
2021/12/09 05:46:00;;;;;;;0.20;0.20;;;;;;;19.19;41.47;99977.25;5125126;28;20043;-34
2021/12/09 05:48:26;;;;;;;0.20;0.20;;;;;;;19.18;41.54;99976.41;5121131;28;20099;-34
2021/12/09 05:50:52;;;;;;;0.20;0.20;;;;;;;19.19;41.74;99986.34;5121454;28;20047;-34
2021/12/09 05:53:18;;;;;;;0.20;0.20;;;;;;;19.17;41.58;99974.78;5125337;28;20047;-34
2021/12/09 05:55:44;;;;;;;0.20;0.20;;;;;;;19.19;41.49;99988.28;5104499;28;20459;-34
2021/12/09 05:58:12;;;;;;;0.20;0.20;;;;;;;19.19;41.72;99993.78;5106498;28;20066;-38
2021/12/09 06:00:37;;;;;;;;;;;;;;;19.19;41.66;99989.09;5106357;28;20293;-37
2021/12/09 06:03:03;;;;;;;0.20;0.20;;;;;;;19.18;41.72;99989.41;5125288;28;20105;-35
2021/12/09 06:05:29;;;;;;;0.20;0.20;;;;;;;19.17;41.67;99991.34;5122266;28;20043;-34
2021/12/09 06:07:55;;;;;;;0.20;0.20;;;;;;;19.17;41.54;99988.59;5122091;28;20046;-35
2021/12/09 06:10:21;;;;;;;0.20;0.20;;;;;;;19.17;41.73;99983.06;5120881;28;20484;-34
2021/12/09 06:12:47;;;;;;;0.20;0.20;;;;;;;19.18;41.74;99990.22;5123287;28;20054;-34
2021/12/09 06:15:13;;;;;;;0.20;0.20;;;;;;;19.19;41.44;99996.56;5106985;28;20039;-36
2021/12/09 06:17:39;;;;;;;0.20;0.20;;;;;;;19.19;41.68;99994.63;5122563;28;20402;-35
2021/12/09 06:20:05;;;;;;;0.20;0.20;;;;;;;19.18;41.65;99990.22;5105501;28;20497;-34
2021/12/09 06:22:31;;;;;;;0.20;0.20;;;;;;;19.17;41.63;99991.34;5104230;28;20086;-35
2021/12/09 06:24:56;;;;;;;0.20;0.20;;;;;;;19.18;41.76;99995.75;5122355;28;20040;-34
2021/12/09 06:27:22;;;;;;;0.20;0.20;;;;;;;19.17;41.68;99991.34;5125770;28;20073;-35
2021/12/09 06:29:48;;;;;;;0.20;0.20;;;;;;;19.18;41.37;99994.94;5123717;28;20485;-34
2021/12/09 06:32:13;;;;;;;0.20;0.20;;;;;;;19.18;41.44;99992.97;5121771;28;20408;-34
2021/12/09 06:34:39;;;;;;;0.20;0.20;;;;;;;19.18;41.56;99986.66;5121660;28;20043;-34
2021/12/09 06:37:06;;;;;;;0.20;0.20;;;;;;;19.18;41.53;99994.94;5121758;28;20134;-34
2021/12/09 06:39:32;;;;;;;0.20;0.20;;;;;;;19.18;41.72;99992.16;5120835;28;20044;-35
2021/12/09 06:41:58;;;;;;;0.20;0.20;;;;;;;19.19;41.41;99993.78;5122260;28;20396;-34
2021/12/09 06:44:23;;;;;;;0.20;0.20;;;;;;;19.17;41.69;100002.38;5121099;28;20043;-34
2021/12/09 06:46:49;;;;;;;0.20;0.20;;;;;;;19.18;41.65;100008.72;5117450;28;20486;-34
2021/12/09 06:49:15;;;;;;;0.20;0.20;;;;;;;19.18;41.54;100000.44;5120970;28;20121;-34
2021/12/09 06:51:41;;;;;;;0.20;0.20;;;;;;;19.18;41.39;100009.53;5115886;28;20054;-36
2021/12/09 06:54:06;;;;;;;0.20;0.20;;;;;;;19.18;41.48;100005.97;5118718;28;20047;-35
2021/12/09 06:56:32;;;;;;;0.20;0.20;;;;;;;19.18;41.87;100004.03;5120465;28;20056;-37
2021/12/09 06:58:59;;;;;;;0.20;0.20;;;;;;;19.18;41.42;100003.19;5122227;28;20061;-34
2021/12/09 07:01:36;;;;;;;0.20;0.20;;;;;;;19.17;41.77;100005.16;5122792;28;20501;-35
2021/12/09 07:04:02;;;;;;;0.20;0.20;;;;;;;19.17;41.49;100005.16;5115808;28;20050;-34
2021/12/09 07:06:28;;;;;;;0.20;0.20;;;;;;;19.17;41.81;100002.38;5115850;28;20209;-34
2021/12/09 07:08:59;;;;;;;0.20;0.20;;;;;;;19.18;41.34;100005.97;5115581;27;20318;-34
2021/12/09 07:11:24;;;;;;;0.20;0.20;;;;;;;19.18;41.48;100005.97;5115099;28;20061;-34
2021/12/09 07:13:50;;;;;;;0.20;0.20;;;;;;;19.17;41.50;100005.16;5115649;27;20405;-35
2021/12/09 07:16:16;;;;;;;0.20;0.20;;;;;;;19.17;41.49;100004.31;5101269;28;20039;-33
2021/12/09 07:18:43;;;;;;;0.20;0.20;;;;;;;19.17;41.60;99998.78;5104920;28;20051;-34
2021/12/09 07:21:09;;;;;;;0.20;0.20;;;;;;;19.17;41.71;99999.63;5115165;28;20039;-34
2021/12/09 07:23:35;;;;;;;0.20;0.20;;;;;;;19.17;41.55;99996.88;5119992;27;20077;-34
2021/12/09 07:26:01;;;;;;;0.20;0.20;;;;;;;19.17;41.47;99999.63;5109260;28;20417;-33
2021/12/09 07:28:26;;;;;;;0.20;0.20;;;;;;;19.17;41.66;100002.38;5108476;28;20465;-34
2021/12/09 07:30:52;;;;;;;0.20;0.20;;;;;;;19.17;41.38;100007.91;5124789;28;20234;-34
2021/12/09 07:33:18;;;;;;;0.20;0.20;;;;;;;19.18;41.46;100005.97;5124607;27;20089;-34
2021/12/09 07:35:43;;;;;;;0.20;0.20;;;;;;;19.17;41.46;100012.59;5101196;28;20065;-34
2021/12/09 07:38:13;;;;;;;0.20;0.20;;;;;;;19.17;41.58;100013.44;5103188;27;20047;-33
2021/12/09 07:40:39;;;;;;;0.20;0.20;;;;;;;19.17;41.63;100016.19;5106100;28;20194;-35
2021/12/09 07:43:05;;;;;;;0.20;0.20;;;;;;;19.18;41.38;100015.06;5127269;27;20381;-33
2021/12/09 07:45:31;;;;;;;0.20;0.20;;;;;;;19.18;41.40;100014.25;5107976;27;20402;-34
2021/12/09 07:47:57;;;;;;;0.20;0.20;;;;;;;19.17;41.57;100021.72;5110006;27;20046;-33
2021/12/09 07:50:26;;;;;;;0.20;0.20;;;;;;;19.16;41.46;100022.81;5105485;27;20047;-34
2021/12/09 07:52:52;;;;;;;0.20;0.20;;;;;;;19.15;41.58;100021.19;5120118;27;20040;-33
2021/12/09 07:55:20;;;;;;;0.20;0.20;;;;;;;19.17;41.50;100015.34;5120945;28;20035;-33
2021/12/09 07:57:46;;;;;;;0.20;0.20;;;;;;;19.17;41.58;100021.72;5125194;28;20119;-33
2021/12/09 08:00:16;;;;;;;0.20;0.20;;;;;;;19.17;41.74;100018.94;5102908;28;20043;-33
2021/12/09 08:02:43;;;;;;;0.20;0.20;;;;;;;19.17;41.54;100013.44;5071307;28;20217;-33
2021/12/09 08:05:10;;;;;;;0.20;0.20;;;;;;;19.18;41.42;100014.25;5112131;28;20253;-33
2021/12/09 08:07:36;;;;;;;0.20;0.20;;;;;;;19.16;41.72;100017.28;5094401;28;20378;-33
2021/12/09 08:10:02;;;;;;;0.20;0.20;;;;;;;19.18;41.38;100030.81;5111866;28;20053;-33
2021/12/09 08:12:28;;;;;;;0.20;0.20;;;;;;;19.16;41.69;100025.56;5103100;28;20039;-34
2021/12/09 08:15:16;;;;;;;0.20;0.20;;;;;;;19.17;41.62;100023.63;5103155;28;20739;-35
2021/12/09 08:20:18;;;;;;;0.20;0.20;;;;;;;19.16;41.42;100031.09;5152482;27;20221;-34
2021/12/09 08:22:45;;;;;;;0.20;0.20;;;;;;;19.16;41.73;100028.31;5141737;27;20043;-34
2021/12/09 08:25:13;;;;;;;0.20;0.20;;;;;;;19.17;41.57;100023.63;5136492;27;20047;-34
2021/12/09 08:27:42;;;;;;;0.20;0.20;;;;;;;19.19;40.58;100024.16;5112309;27;20065;-43
2021/12/09 08:30:11;;;;;;;0.20;0.20;;;;;;;19.26;40.80;100030.13;5140583;27;20061;-44
2021/12/09 08:32:37;;;;;;;0.20;0.20;;;;;;;19.26;40.82;100035.63;5121757;27;20039;-44
2021/12/09 08:35:03;;;;;;;0.20;0.20;;;;;;;19.24;41.01;100035.09;5138801;27;20047;-44
2021/12/09 08:37:29;;;;;;;0.20;0.20;;;;;;;19.23;40.98;100037.06;5140997;27;20043;-44
2021/12/09 08:39:55;;;;;;;0.20;0.20;;;;;;;19.23;41.17;100039.81;5141103;27;20045;-44
2021/12/09 08:42:21;;;;;;;0.20;0.20;;;;;;;19.23;40.99;100036.22;5138621;27;20035;-45
2021/12/09 08:44:47;;;;;;;0.20;0.20;;;;;;;19.22;41.11;100043.69;5141051;27;20043;-44
2021/12/09 08:47:12;;;;;;;0.20;0.20;;;;;;;19.23;41.27;100036.22;5143024;27;20046;-44
2021/12/09 08:49:38;;;;;;;0.20;0.20;;;;;;;19.23;41.04;100041.75;5140397;27;20043;-44
2021/12/09 08:52:04;;;;;;;0.20;0.20;;;;;;;19.23;41.27;100048.09;5142506;27;20043;-44
2021/12/09 08:54:30;;;;;;;0.20;0.20;;;;;;;19.24;41.47;100049.72;5134297;27;20047;-44
2021/12/09 08:56:58;;;;;;;0.20;0.20;;;;;;;19.25;41.19;100051.34;5141977;27;20047;-46
2021/12/09 08:59:25;;;;;;;0.20;0.20;;;;;;;19.25;41.41;100050.53;5137644;27;20398;-44
2021/12/09 09:02:05;;;;;;;0.20;0.20;;;;;;;19.25;41.39;100056.88;5135391;27;20038;-44
2021/12/09 09:04:31;;;;;;;0.20;0.20;;;;;;;19.26;41.09;100057.72;5114134;27;20051;-44
2021/12/09 09:06:59;;;;;;;0.20;0.20;;;;;;;19.27;41.15;100053.84;5132180;27;20047;-44
2021/12/09 09:09:26;;;;;;;0.20;0.20;;;;;;;19.27;41.36;100064.88;5122373;27;20141;-45
2021/12/09 09:11:53;;;;;;;0.20;0.20;;;;;;;19.27;41.10;100065.69;5107292;27;20047;-45
2021/12/09 09:14:19;;;;;;;0.20;0.20;;;;;;;19.28;41.35;100070.06;5114335;27;20320;-43
2021/12/09 09:16:45;;;;;;;0.20;0.20;;;;;;;19.28;41.10;100072.03;5115145;27;20856;-44
2021/12/09 09:19:12;;;;;;;0.20;0.20;;;;;;;19.45;41.09;100069.50;5133476;27;20051;-49
2021/12/09 09:21:37;;;;;;;0.20;0.20;;;;;;;19.63;40.71;100064.25;5136501;27;20057;-50
2021/12/09 09:24:04;;;;;;;0.20;0.20;;;;;;;19.69;40.24;100061.13;5133753;27;20043;-34
2021/12/09 09:26:30;;;;;;;0.20;0.20;;;;;;;19.74;40.22;100069.28;5120461;27;20095;-36
2021/12/09 09:28:57;;;;;;;0.20;0.20;;;;;;;19.73;40.68;100075.97;5137318;27;20094;-36
2021/12/09 09:31:28;;;;;;;0.20;0.20;;;;;;;19.74;40.83;100074.00;5127384;27;20054;-36
2021/12/09 09:33:54;;;;;;;0.20;0.20;;;;;;;19.68;41.03;100073.25;5118680;27;20298;-36
2021/12/09 09:36:19;;;;;;;0.20;0.20;;;;;;;19.67;41.05;100070.81;5115131;27;20245;-36
2021/12/09 09:38:45;;;;;;;0.20;0.20;;;;;;;19.66;41.16;100078.28;5114743;27;20046;-36
2021/12/09 09:41:16;;;;;;;0.20;0.20;;;;;;;19.66;40.95;100083.81;5113139;27;20142;-37
2021/12/09 09:46:16;;;;;;;0.20;0.20;;;;;;;19.66;40.94;100081.06;5124984;27;20047;-37
2021/12/09 09:48:44;;;;;;;0.20;0.20;;;;;;;19.66;41.09;100092.09;5120867;28;20436;-35
2021/12/09 09:51:10;;;;;;;0.20;0.20;;;;;;;19.66;40.88;100077.47;5082369;27;20051;-41
2021/12/09 09:53:36;;;;;;;0.20;0.20;;;;;;;19.67;40.85;100085.44;5116206;28;20106;-37
2021/12/09 09:56:12;;;;;;;0.20;0.20;;;;;;;19.67;40.86;100088.22;5122078;27;20047;-44
2021/12/09 09:58:38;;;;;;;0.20;0.20;;;;;;;19.68;41.10;100089.03;5101189;28;20181;-41
2021/12/09 10:01:04;;;;;;;0.20;0.20;;;;;;;19.68;40.89;100091.78;5104006;28;20068;-38
2021/12/09 10:03:31;;;;;;;0.20;0.20;;;;;;;19.69;40.96;100090.66;5117406;27;20657;-41
2021/12/09 10:05:58;;;;;;;0.20;0.20;;;;;;;19.69;41.17;100093.41;5121259;27;20039;-35
2021/12/09 10:08:24;;;;;;;0.20;0.20;;;;;;;19.69;41.07;100085.97;5121732;27;20055;-35
2021/12/09 10:10:49;;;;;;;0.20;0.20;;;;;;;19.70;41.05;100079.31;5117000;27;20081;-35
2021/12/09 10:13:18;;;;;;;0.20;0.20;;;;;;;19.71;40.92;100074.63;5117985;27;20130;-37
2021/12/09 10:15:47;;;;;;;0.20;0.20;;;;;;;19.70;40.66;100071.03;5111430;27;20479;-38
2021/12/09 10:18:14;;;;;;;0.20;0.20;;;;;;;19.72;40.63;100074.28;5099030;27;20054;-36
2021/12/09 10:20:57;;;;;;;0.20;0.20;;;;;;;19.73;40.64;100075.09;5079572;28;20039;-38
2021/12/09 10:23:35;;;;;;;0.20;0.20;;;;;;;19.73;40.98;100075.97;5117161;27;20051;-40
2021/12/09 10:26:29;;;;;;;0.20;0.20;;;;;;;19.74;40.66;100068.47;5105706;28;20043;-37
2021/12/09 10:29:20;;;;;;;0.20;0.20;;;;;;;19.75;40.81;100068.16;5104018;27;20055;-37
2021/12/09 10:31:54;;;;;;;0.20;0.20;;;;;;;19.75;40.82;100064.59;5103252;27;20558;-37
2021/12/09 10:34:40;;;;;;;0.20;0.20;;;;;;;19.75;40.81;100068.16;5116401;27;20056;-37
2021/12/09 10:37:26;;;;;;;0.20;0.20;;;;;;;19.76;40.76;100061.50;5119655;27;20055;-37
2021/12/09 10:39:57;;;;;;;0.20;0.20;;;;;;;19.75;40.67;100056.31;5100453;27;20166;-37
2021/12/09 10:42:29;;;;;;;0.20;0.20;;;;;;;19.75;40.38;100050.78;5093405;27;20086;-37
2021/12/09 10:45:12;;;;;;;0.20;0.20;;;;;;;19.75;40.49;100050.78;5115817;27;20051;-40
2021/12/09 10:47:50;;;;;;;0.20;0.20;;;;;;;19.75;40.59;100045.25;5114336;27;20404;-43
2021/12/09 10:50:35;;;;;;;0.20;0.20;;;;;;;19.73;40.53;100051.09;5091756;27;20051;-37
2021/12/09 10:53:30;;;;;;;0.20;0.20;;;;;;;19.72;40.56;100038.38;5097053;27;20061;-37
2021/12/09 10:55:55;;;;;;;0.20;0.20;;;;;;;19.71;40.49;100041.47;5093525;27;20070;-39
2021/12/09 10:58:23;;;;;;;0.20;0.20;;;;;;;19.71;40.41;100042.28;5118935;27;20438;-36
2021/12/09 11:00:52;;;;;;;0.20;0.20;;;;;;;19.70;40.86;100037.06;5120299;27;20099;-39
2021/12/09 11:03:40;;;;;;;0.20;0.20;;;;;;;19.68;40.64;100034.59;5091239;28;20053;-41
2021/12/09 11:06:19;;;;;;;0.20;0.20;;;;;;;19.68;40.56;100022.72;5085696;28;20051;-38
2021/12/09 11:08:49;;;;;;;;;;;;;;;19.67;40.63;100024.66;5117338;28;20091;-41
2021/12/09 11:13:55;;;;;;;0.20;0.20;;;;;;;19.65;40.49;100021.41;5144248;27;20200;-36
2021/12/09 11:16:39;;;;;;;0.20;0.20;;;;;;;19.66;40.61;100022.22;5114820;27;20544;-36
2021/12/09 11:19:35;;;;;;;0.20;0.20;;;;;;;19.65;40.80;100015.88;5108658;27;20135;-36
2021/12/09 11:22:06;;;;;;;0.20;0.20;;;;;;;19.65;40.79;100009.56;5108685;27;20047;-40
2021/12/09 11:24:37;;;;;;;0.20;0.20;;;;;;;19.65;40.41;100009.56;5104966;27;20039;-37
2021/12/09 11:27:05;;;;;;;0.20;0.20;;;;;;;19.64;40.48;100014.22;5132433;27;20046;-39
2021/12/09 11:29:40;;;;;;;0.20;0.20;;;;;;;19.64;40.70;100005.94;5130493;27;20042;-37
2021/12/09 11:35:17;;;;;;;0.20;0.20;;;;;;;19.63;40.75;100009.03;5110051;27;20357;-36
2021/12/09 11:38:01;;;;;;;0.20;0.20;;;;;;;19.63;40.67;100004.31;5123862;27;20047;-39
2021/12/09 11:40:39;;;;;;;0.20;0.20;;;;;;;19.63;40.86;100000.72;5126534;27;20043;-37
2021/12/09 11:43:07;;;;;;;0.20;0.20;;;;;;;19.64;40.83;99994.06;5121568;27;20143;-38
2021/12/09 11:45:36;;;;;;;0.20;0.20;;;;;;;19.63;40.64;99995.22;5102412;27;20047;-37
2021/12/09 11:48:04;;;;;;;0.20;0.20;;;;;;;19.62;40.92;99993.59;5110836;27;20047;-37
2021/12/09 11:50:33;;;;;;;0.20;0.20;;;;;;;19.62;40.63;99988.06;5124582;27;20043;-37